Time;durP1;ratioP1;P1;durP2;ratioP2;P2;SDS_P1;SDS_P2;PMS_P1;PMS_P2;Temp;Humidity;BMP_temperature;BMP_pressure;BME280_temperature;BME280_humidity;BME280_pressure;Samples;Min_cycle;Max_cycle;Signal;HPM_P1;HPM_P2
2022/07/20 00:00:07;;;;;;;;;;;;;;;18.54;50.75;99894.06;4958600;28;19914;-93
2022/07/20 00:02:32;;;;;;;;;;;;;;;18.52;51.02;99897.09;4959481;28;19918;-92
2022/07/20 00:04:58;;;;;;;;;;;;;;;18.47;51.10;99893.69;4959402;28;19914;-93
2022/07/20 00:07:23;;;;;;;;;;;;;;;18.40;50.62;99890.59;4958837;28;19914;-93
2022/07/20 00:12:32;;;;;;;;;;;;;;;18.24;51.52;99885.50;4961837;28;19938;-94
2022/07/20 00:14:58;;;;;;;;;;;;;;;18.32;50.98;99889.38;4959432;28;19914;-93
2022/07/20 00:17:23;;;;;;;;;;;;;;;18.14;52.06;99893.88;4958975;28;19937;-93
2022/07/20 00:19:48;;;;;;;;;;;;;;;18.14;51.83;99885.72;4958903;28;19914;-93
2022/07/20 00:22:13;;;;;;;;;;;;;;;18.09;52.13;99883.88;4959134;28;19914;-93
2022/07/20 00:24:39;;;;;;;;;;;;;;;18.08;52.18;99885.00;4959448;28;19968;-93
2022/07/20 00:27:04;;;;;;;;;;;;;;;18.04;51.95;99884.00;4959229;28;20380;-93
2022/07/20 00:29:29;;;;;;;;;;;;;;;18.07;52.04;99882.59;4958510;28;20332;-93
2022/07/20 00:31:55;;;;;;;;;;;;;;;18.07;51.71;99882.59;4958752;28;20024;-94
2022/07/20 00:34:20;;;;;;;;;;;;;;;18.01;51.93;99890.06;4962197;28;19914;-93
2022/07/20 00:36:45;;;;;;;;;;;;;;;17.97;52.51;99887.16;4962103;28;19914;-93
2022/07/20 00:39:11;;;;;;;;;;;;;;;17.97;52.16;99886.31;4950339;28;19922;-93
2022/07/20 00:41:36;;;;;;;;;;;;;;;18.01;52.17;99881.88;4942423;28;19914;-93
2022/07/20 00:44:03;;;;;;;;;;;;;;;17.99;52.13;99892.28;4968694;28;19914;-93
2022/07/20 00:46:29;;;;;;;;;;;;;;;17.96;52.56;99885.53;4961811;28;19964;-93
2022/07/20 00:48:54;;;;;;;;;;;;;;;18.06;52.48;99892.69;4961286;28;20442;-93
2022/07/20 00:51:20;;;;;;;;;;;;;;;18.08;52.20;99890.47;4961478;28;19914;-94
2022/07/20 00:53:45;;;;;;;;;;;;;;;18.06;51.83;99887.22;4961368;28;19993;-93
2022/07/20 00:56:11;;;;;;;;;;;;;;;18.04;52.18;99891.38;4961679;28;19918;-93
2022/07/20 00:58:36;;;;;;;;;;;;;;;18.15;51.49;99879.94;4961268;28;19922;-93
2022/07/20 01:01:02;;;;;;;;;;;;;;;18.09;51.62;99888.53;4961794;28;19924;-93
2022/07/20 01:03:27;;;;;;;;;;;;;;;18.05;51.66;99890.25;4961956;28;19965;-93
2022/07/20 01:05:52;;;;;;;;;;;;;;;18.09;52.15;99885.81;4961372;28;19924;-93
2022/07/20 01:08:17;;;;;;;;;;;;;;;17.99;52.15;99892.28;4973270;28;19925;-93
2022/07/20 01:10:43;;;;;;;;;;;;;;;17.95;52.83;99892.09;4941908;28;19914;-93
2022/07/20 01:13:08;;;;;;;;;;;;;;;17.94;51.94;99893.19;4942406;28;19968;-93
2022/07/20 01:15:33;;;;;;;;;;;;;;;17.91;51.85;99887.56;4942019;28;19915;-93
2022/07/20 01:17:59;;;;;;;;;;;;;;;17.87;52.24;99881.13;4943465;28;19921;-93
2022/07/20 01:20:24;;;;;;;;;;;;;;;17.86;52.50;99887.66;4961653;28;20402;-94
2022/07/20 01:22:49;;;;;;;;;;;;;;;17.84;52.24;99887.97;4961629;28;19960;-93
2022/07/20 01:25:15;;;;;;;;;;;;;;;17.81;52.70;99882.31;4961159;28;19929;-93
2022/07/20 01:27:40;;;;;;;;;;;;;;;17.75;53.09;99881.59;4948733;28;20068;-93
2022/07/20 01:30:05;;;;;;;;;;;;;;;17.64;53.86;99875.56;4938845;29;20293;-92
2022/07/20 01:32:31;;;;;;;;;;;;;;;17.64;53.42;99882.88;4938892;29;20010;-93
2022/07/20 01:34:56;;;;;;;;;;;;;;;17.59;53.55;99886.53;4941808;28;20009;-93
2022/07/20 01:37:21;;;;;;;;;;;;;;;17.46;54.23;99892.78;4941860;28;20384;-93
2022/07/20 01:39:47;;;;;;;;;;;;;;;17.51;54.60;99889.94;4942276;28;20010;-93
2022/07/20 01:42:12;;;;;;;;;;;;;;;17.47;54.44;99888.94;4942500;28;19973;-93
2022/07/20 01:44:37;;;;;;;;;;;;;;;17.41;54.83;99884.69;4942254;28;20352;-92
2022/07/20 01:47:02;;;;;;;;;;;;;;;17.36;54.57;99893.78;4941719;28;19929;-92
2022/07/20 01:49:28;;;;;;;;;;;;;;;17.26;55.12;99886.59;4942178;28;20376;-92
2022/07/20 01:51:53;;;;;;;;;;;;;;;17.10;55.50;99886.09;4942249;28;19973;-93
2022/07/20 01:54:19;;;;;;;;;;;;;;;17.13;55.26;99880.03;4957908;28;19914;-93
2022/07/20 01:56:44;;;;;;;;;;;;;;;17.07;55.52;99891.31;4941975;28;19993;-93
2022/07/20 01:59:09;;;;;;;;;;;;;;;17.10;55.86;99888.81;4931171;29;19964;-94
2022/07/20 02:01:35;;;;;;;;;;;;;;;17.10;55.70;99888.81;4923840;29;19914;-92
2022/07/20 02:04:00;;;;;;;;;;;;;;;17.09;56.14;99886.38;4935809;28;19914;-94
2022/07/20 02:06:25;;;;;;;;;;;;;;;17.08;55.78;99891.03;4945429;28;19914;-93
2022/07/20 02:08:50;;;;;;;;;;;;;;;17.07;55.41;99889.38;4945753;28;19914;-93
2022/07/20 02:11:16;;;;;;;;;;;;;;;17.01;55.31;99885.16;4961193;28;19914;-94
2022/07/20 02:13:41;;;;;;;;;;;;;;;16.94;55.57;99884.75;4961734;28;19914;-93
2022/07/20 02:16:16;;;;;;;;;;;;;;;16.88;55.75;99892.16;4945443;28;20443;-93
2022/07/20 02:18:42;;;;;;;;;;;;;;;16.84;55.85;99887.63;4946777;28;19914;-93
2022/07/20 02:21:07;;;;;;;;;;;;;;;16.93;55.34;99891.25;4961259;28;19953;-93
2022/07/20 02:23:32;;;;;;;;;;;;;;;16.89;55.98;99888.34;4961651;28;19918;-92
2022/07/20 02:25:58;;;;;;;;;;;;;;;16.88;56.46;99884.00;4945286;28;20356;-93
2022/07/20 02:28:23;;;;;;;;;;;;;;;16.90;56.26;99891.88;4944969;28;20021;-93
2022/07/20 02:30:48;;;;;;;;;;;;;;;16.92;55.88;99882.31;4945057;28;20441;-92
2022/07/20 02:33:13;;;;;;;;;;;;;;;16.86;56.16;99879.97;4941121;29;19914;-92
2022/07/20 02:35:39;;;;;;;;;;;;;;;16.86;56.34;99894.38;4925849;29;19914;-93
2022/07/20 02:38:04;;;;;;;;;;;;;;;16.85;55.97;99887.34;4944304;28;20421;-93
2022/07/20 02:40:29;;;;;;;;;;;;;;;16.85;55.97;99895.50;4945458;28;19914;-92
2022/07/20 02:42:55;;;;;;;;;;;;;;;16.80;56.48;99890.09;4959864;28;19914;-92
2022/07/20 02:45:21;;;;;;;;;;;;;;;16.79;56.06;99891.22;4926018;29;19919;-92
2022/07/20 02:47:47;;;;;;;;;;;;;;;16.83;56.32;99889.53;4926013;29;19919;-93
2022/07/20 02:50:12;;;;;;;;;;;;;;;16.82;56.17;99893.34;4925898;29;19985;-92
2022/07/20 02:52:38;;;;;;;;;;;;;;;16.78;56.69;99901.25;4925990;29;20388;-92
2022/07/20 02:55:04;;;;;;;;;;;;;;;16.74;56.61;99897.50;4925591;29;19930;-92
2022/07/20 02:57:30;;;;;;;;;;;;;;;16.64;57.31;99897.69;4926029;29;19914;-93
2022/07/20 02:59:55;;;;;;;;;;;;;;;16.59;56.81;99897.78;4942105;29;19934;-92
2022/07/20 03:02:20;;;;;;;;;;;;;;;16.59;57.32;99899.69;4925627;29;19937;-92
2022/07/20 03:04:46;;;;;;;;;;;;;;;16.53;57.54;99899.75;4925866;29;19938;-92
2022/07/20 03:07:11;;;;;;;;;;;;;;;16.61;56.74;99901.00;4925858;29;19923;-93
2022/07/20 03:09:37;;;;;;;;;;;;;;;16.60;56.85;99904.84;4925738;29;19988;-92
2022/07/20 03:12:02;;;;;;;;;;;;;;;16.64;57.09;99908.56;4925083;29;20307;-91
2022/07/20 03:14:27;;;;;;;;;;;;;;;16.65;56.98;99912.09;4925268;29;19922;-92
2022/07/20 03:16:53;;;;;;;;;;;;;;;16.62;56.90;99912.69;4925191;29;19918;-92
2022/07/20 03:19:18;;;;;;;;;;;;;;;16.63;56.58;99911.59;4940918;29;19915;-91
2022/07/20 03:21:43;;;;;;;;;;;;;;;16.69;55.66;99915.84;4924838;29;19918;-92
2022/07/20 03:24:08;;;;;;;;;;;;;;;16.90;53.70;99916.34;4932144;29;20388;-93
2022/07/20 03:26:34;;;;;;;;;;;;;;;16.96;53.17;99920.59;4943739;28;20016;-93
2022/07/20 03:28:59;;;;;;;;;;;;;;;16.99;53.61;99924.63;4959843;28;19918;-93
2022/07/20 03:31:24;;;;;;;;;;;;;;;17.00;54.02;99927.06;4960712;28;19922;-92
2022/07/20 03:33:50;;;;;;;;;;;;;;;16.85;54.90;99919.97;4960145;28;19914;-92
2022/07/20 03:36:15;;;;;;;;;;;;;;;16.70;54.89;99928.31;4952635;28;19988;-93
2022/07/20 03:38:40;;;;;;;;;;;;;;;16.65;55.70;99923.78;4960271;28;19987;-92
2022/07/20 03:41:06;;;;;;;;;;;;;;;16.52;56.08;99917.19;4965104;28;19949;-93
2022/07/20 03:43:31;;;;;;;;;;;;;;;16.56;56.14;99920.13;4960406;28;19920;-94
2022/07/20 03:45:56;;;;;;;;;;;;;;;16.52;56.23;99928.06;4962089;28;20019;-95
2022/07/20 03:48:21;;;;;;;;;;;;;;;16.41;57.27;99928.47;4960943;28;19922;-94
2022/07/20 03:50:47;;;;;;;;;;;;;;;16.30;57.72;99928.63;4960774;28;19918;-94
2022/07/20 03:53:13;;;;;;;;;;;;;;;16.42;57.47;99922.75;4976395;28;19918;-96
2022/07/20 03:55:38;;;;;;;;;;;;;;;16.48;57.33;99924.31;4962200;28;19914;-93
2022/07/20 03:58:03;;;;;;;;;;;;;;;16.61;56.10;99930.91;4978861;28;19925;-96
2022/07/20 04:00:29;;;;;;;;;;;;;;;16.59;56.21;99929.59;4977650;28;19918;-94
2022/07/20 04:02:54;;;;;;;;;;;;;;;16.54;56.15;99922.34;4977777;28;20415;-94
2022/07/20 04:05:19;;;;;;;;;;;;;;;16.55;56.09;99926.66;4980677;28;19914;-92
2022/07/20 04:07:44;;;;;;;;;;;;;;;16.54;56.49;99925.06;4964103;28;20005;-95
2022/07/20 04:10:10;;;;;;;;;;;;;;;16.60;56.33;99928.47;4965100;28;19917;-95
2022/07/20 04:12:35;;;;;;;;;;;;;;;16.73;55.33;99925.03;4964751;28;19918;-95
2022/07/20 04:15:00;;;;;;;;;;;;;;;16.83;55.33;99927.63;4964373;28;19917;-95
2022/07/20 04:17:26;;;;;;;;;;;;;;;17.07;53.39;99924.75;4963569;28;20414;-93
2022/07/20 04:19:53;;;;;;;;;;;;;;;17.22;52.80;99925.59;4947337;28;22657;-95
2022/07/20 04:22:18;;;;;;;;;;;;;;;17.34;52.20;99925.94;4945245;28;19914;-93
2022/07/20 04:24:44;;;;;;;;;;;;;;;17.30;52.27;99925.72;4962622;28;19914;-95
2022/07/20 04:27:09;;;;;;;;;;;;;;;17.45;52.12;99927.38;4945638;28;19923;-93
2022/07/20 04:29:35;;;;;;;;;;;;;;;17.46;52.92;99926.25;4945195;28;19972;-92
2022/07/20 04:32:00;;;;;;;;;;;;;;;17.46;52.65;99926.25;4944803;28;19921;-94
2022/07/20 04:34:28;;;;;;;;;;;;;;;17.48;53.03;99925.97;4944415;28;19949;-93
2022/07/20 04:36:54;;;;;;;;;;;;;;;17.64;53.31;99934.63;4943990;28;19925;-92
2022/07/20 04:39:19;;;;;;;;;;;;;;;17.75;53.30;99936.88;4946219;28;19914;-93
2022/07/20 04:41:44;;;;;;;;;;;;;;;17.76;53.41;99934.94;4958882;28;19980;-94
2022/07/20 04:44:10;;;;;;;;;;;;;;;17.86;53.88;99931.25;4979504;28;19914;-91
2022/07/20 04:46:35;;;;;;;;;;;;;;;17.92;53.07;99933.56;4978757;28;19942;-93
2022/07/20 04:49:00;;;;;;;;;;;;;;;17.97;52.56;99935.38;4963430;28;19914;-93
2022/07/20 04:51:25;;;;;;;;;;;;;;;18.02;52.59;99934.47;4957606;28;20001;-92
2022/07/20 04:53:51;;;;;;;;;;;;;;;18.11;51.24;99944.34;4943474;28;19921;-91
2022/07/20 04:56:18;;;;;;;;;;;;;;;18.26;50.96;99940.50;4942328;28;19914;-92
2022/07/20 04:58:43;;;;;;;;;;;;;;;18.32;50.11;99930.28;4942347;28;20373;-93
2022/07/20 05:01:09;;;;;;;;;;;;;;;18.34;50.40;99937.06;4943425;28;19921;-91
2022/07/20 05:03:34;;;;;;;;;;;;;;;18.48;50.42;99947.13;4947772;28;19937;-94
2022/07/20 05:05:59;;;;;;;;;;;;;;;18.53;50.12;99938.81;4984327;28;19914;-92
2022/07/20 05:08:25;;;;;;;;;;;;;;;18.53;49.74;99941.53;4950014;28;19919;-92
2022/07/20 05:10:50;;;;;;;;;;;;;;;18.66;48.34;99934.44;4955780;28;20001;-92
2022/07/20 05:13:15;;;;;;;;;;;;;;;18.86;48.49;99941.34;4965198;28;20379;-93
2022/07/20 05:15:41;;;;;;;;;;;;;;;19.04;47.21;99932.16;4968262;28;20315;-92
2022/07/20 05:18:06;;;;;;;;;;;;;;;19.07;48.06;99937.03;4962233;28;19914;-92
2022/07/20 05:20:31;;;;;;;;;;;;;;;19.27;47.24;99941.13;4968480;28;19921;-92
2022/07/20 05:22:57;;;;;;;;;;;;;;;19.38;47.34;99945.22;4966686;28;19920;-91
2022/07/20 05:25:22;;;;;;;;;;;;;;;19.40;47.96;99944.91;4966820;28;20014;-92
2022/07/20 05:27:48;;;;;;;;;;;;;;;19.53;47.56;99948.69;4962590;28;19922;-94
2022/07/20 05:30:13;;;;;;;;;;;;;;;19.59;46.71;99948.22;4975041;28;20319;-93
2022/07/20 05:32:39;;;;;;;;;;;;;;;19.65;45.68;99953.53;4981069;28;20237;-93
2022/07/20 05:35:05;;;;;;;;;;;;;;;19.69;46.24;99954.53;4963832;28;20335;-92
2022/07/20 05:37:30;;;;;;;;;;;;;;;19.85;47.16;99957.69;4984195;28;19937;-93
2022/07/20 05:39:56;;;;;;;;;;;;;;;19.93;46.72;99952.22;4963891;28;19914;-92
2022/07/20 05:42:21;;;;;;;;;;;;;;;20.10;45.65;99950.66;4949353;28;20000;-93
2022/07/20 05:44:48;;;;;;;;;;;;;;;20.14;46.20;99955.19;4974617;28;19913;-95
2022/07/20 05:47:17;;;;;;;;;;;;;;;20.17;45.68;99951.00;4997753;28;19973;-96
2022/07/20 05:49:44;;;;;;;;;;;;;;;20.27;46.47;99955.38;4986136;28;19913;-92
2022/07/20 05:52:09;;;;;;;;;;;;;;;20.44;45.66;99951.84;4965496;28;19914;-91
2022/07/20 05:54:35;;;;;;;;;;;;;;;20.58;45.17;99958.81;4965169;28;19977;-90
2022/07/20 05:57:03;;;;;;;;;;;;;;;20.73;44.86;99963.03;4996126;28;19936;-89
2022/07/20 05:59:31;;;;;;;;;;;;;;;20.82;44.42;99952.06;4963104;28;20468;-90
2022/07/20 06:01:57;;;;;;;;;;;;;;;20.94;44.09;99954.97;4987649;28;19918;-89
2022/07/20 06:04:28;;;;;;;;;;;;;;;20.97;45.05;99961.72;4990192;28;20338;-93
2022/07/20 06:06:54;;;;;;;;;;;;;;;21.04;44.03;99962.00;4961191;28;19962;-92
2022/07/20 06:09:20;;;;;;;;;;;;;;;21.11;43.88;99961.53;4979078;28;19914;-93
2022/07/20 06:11:48;;;;;;;;;;;;;;;21.19;43.48;99955.25;4950265;28;19924;-91
2022/07/20 06:14:13;;;;;;;;;;;;;;;21.29;42.30;99954.91;4948883;28;19918;-90
2022/07/20 06:16:41;;;;;;;;;;;;;;;21.51;41.76;99958.56;4948542;28;20419;-94
2022/07/20 06:19:06;;;;;;;;;;;;;;;21.59;41.68;99955.00;4967027;28;19914;-93
2022/07/20 06:21:34;;;;;;;;;;;;;;;21.69;42.25;99942.88;4948481;28;19921;-93
2022/07/20 06:24:00;;;;;;;;;;;;;;;21.88;41.67;99947.94;4963743;28;19921;-93
2022/07/20 06:26:25;;;;;;;;;;;;;;;21.96;41.04;99949.84;4948540;28;19918;-92
2022/07/20 06:28:50;;;;;;;;;;;;;;;22.02;41.58;99948.53;4967361;28;19918;-93
2022/07/20 06:31:16;;;;;;;;;;;;;;;22.16;40.77;99951.84;4986772;28;19913;-93
2022/07/20 06:34:06;;;;;;;;;;;;;;;;;;;;;
2022/07/20 06:36:32;;;;;;;;;;;;;;;22.47;40.20;99945.19;4983206;28;20440;-94
2022/07/20 06:39:01;;;;;;;;;;;;;;;22.69;40.49;99946.00;4951850;28;19941;-95
2022/07/20 06:41:26;;;;;;;;;;;;;;;22.86;40.42;99940.34;4947779;28;19920;-92
2022/07/20 06:43:51;;;;;;;;;;;;;;;22.96;39.98;99933.63;4972432;28;20008;-93
2022/07/20 06:46:17;;;;;;;;;;;;;;;23.15;38.93;99942.19;4954519;28;19914;-94
2022/07/20 06:48:42;;;;;;;;;;;;;;;23.30;38.35;99935.22;4967038;28;19922;-93
2022/07/20 06:51:08;;;;;;;;;;;;;;;23.42;38.54;99939.97;4973763;28;19933;-93
2022/07/20 06:53:33;;;;;;;;;;;;;;;23.48;39.31;99940.56;4983388;28;19918;-91
2022/07/20 06:56:00;;;;;;;;;;;;;;;23.59;38.85;99939.78;4969090;28;19914;-93
2022/07/20 06:58:25;;;;;;;;;;;;;;;23.72;38.73;99935.09;4965143;28;19933;-91
2022/07/20 07:00:54;;;;;;;;;;;;;;;23.84;38.21;99941.75;4980969;28;19914;-91
2022/07/20 07:03:19;;;;;;;;;;;;;;;23.99;38.33;99930.06;4980922;28;19914;-89
2022/07/20 07:05:45;;;;;;;;;;;;;;;24.07;37.85;99929.13;4997296;28;19920;-91
2022/07/20 07:08:10;;;;;;;;;;;;;;;24.16;37.76;99931.75;4979870;28;20384;-94
2022/07/20 07:10:36;;;;;;;;;;;;;;;24.27;37.55;99926.59;4981381;28;19944;-91
2022/07/20 07:13:02;;;;;;;;;;;;;;;24.39;37.36;99927.34;4965369;28;19913;-92
2022/07/20 07:15:33;;;;;;;;;;;;;;;24.58;37.07;99923.19;4962451;28;19997;-92
2022/07/20 07:17:58;;;;;;;;;;;;;;;24.78;36.03;99924.97;4951669;28;20372;-91
2022/07/20 07:20:26;;;;;;;;;;;;;;;24.96;35.71;99924.66;4954544;28;19914;-94
2022/07/20 07:22:52;;;;;;;;;;;;;;;25.09;34.93;99919.88;4978382;28;19921;-93
2022/07/20 07:25:18;;;;;;;;;;;;;;;25.18;35.78;99926.03;4962693;28;19914;-93
2022/07/20 07:27:46;;;;;;;;;;;;;;;25.28;36.64;99920.03;4977227;28;19930;-95
2022/07/20 07:30:15;;;;;;;;;;;;;;;25.43;35.80;99920.41;4977234;28;19968;-93
2022/07/20 07:32:40;;;;;;;;;;;;;;;25.53;35.13;99925.38;4963105;28;20312;-91
2022/07/20 07:35:17;;;;;;;;;;;;;;;25.66;35.02;99926.09;4961680;28;19913;-93
2022/07/20 07:37:45;;;;;;;;;;;;;;;25.72;33.74;99917.19;4964454;28;19913;-95
2022/07/20 07:40:14;;;;;;;;;;;;;;;25.84;32.87;99916.28;4967999;28;19914;-89
2022/07/20 07:42:39;;;;;;;;;;;;;;;26.05;33.27;99913.25;5002690;28;19972;-92
2022/07/20 07:45:07;;;;;;;;;;;;;;;26.20;33.86;99914.34;4983308;28;19941;-92
2022/07/20 07:47:33;;;;;;;;;;;;;;;26.28;33.36;99918.88;4984903;28;19928;-94
2022/07/20 07:50:04;;;;;;;;;;;;;;;26.39;32.49;99908.84;4980230;28;19918;-92
2022/07/20 07:52:32;;;;;;;;;;;;;;;26.50;30.26;99909.09;4965648;28;19914;-92
2022/07/20 07:54:58;;;;;;;;;;;;;;;26.56;29.59;99904.88;4973181;28;19918;-93
2022/07/20 07:57:23;;;;;;;;;;;;;;;26.60;28.74;99894.75;4957291;28;19985;-94
2022/07/20 08:00:02;;;;;;;;;;;;;;;26.81;29.20;99899.06;4956071;28;19914;-89
2022/07/20 08:02:28;;;;;;;;;;;;;;;26.97;30.01;99901.75;4984654;28;19957;-91
2022/07/20 08:04:53;;;;;;;;;;;;;;;27.14;29.77;99898.50;4973600;28;19925;-92
2022/07/20 08:07:18;;;;;;;;;;;;;;;27.31;28.91;99899.19;4976177;28;19918;-91
2022/07/20 08:09:53;;;;;;;;;;;;;;;27.49;29.15;99905.84;4948360;28;19945;-90
2022/07/20 08:12:23;;;;;;;;;;;;;;;27.55;28.58;99901.59;4968774;28;19913;-94
2022/07/20 08:14:52;;;;;;;;;;;;;;;27.67;27.85;99894.28;4988935;28;19940;-94
2022/07/20 08:17:19;;;;;;;;;;;;;;;27.75;27.88;99899.53;4967671;28;20376;-94
2022/07/20 08:19:44;;;;;;;;;;;;;;;27.84;28.21;99899.28;4971275;28;19996;-90
2022/07/20 08:25:15;;;;;;;;;;;;;;;28.03;26.79;99898.38;4995506;28;19957;-96
2022/07/20 08:27:40;;;;;;;;;;;;;;;28.14;28.76;99895.78;4970786;28;19925;-93
2022/07/20 08:30:09;;;;;;;;;;;;;;;28.24;27.31;99899.88;4946760;28;19925;-93
2022/07/20 08:32:41;;;;;;;;;;;;;;;28.36;27.20;99889.34;4938153;28;19914;-93
2022/07/20 08:44:49;;;;;;;;;;;;;;;28.64;25.09;99888.13;4813476;29;19905;-96
2022/07/20 08:47:20;;;;;;;;;;;;;;;28.70;25.49;99888.56;4818959;29;19932;-96
2022/07/20 08:49:46;;;;;;;;;;;;;;;28.73;25.56;99882.28;4886076;29;19915;-95
2022/07/20 08:52:12;;;;;;;;;;;;;;;28.81;25.49;99879.22;4921981;29;19914;-94
2022/07/20 08:54:37;;;;;;;;;;;;;;;28.93;25.70;99880.94;4921738;29;19915;-96
2022/07/20 08:57:12;;;;;;;;;;;;;;;29.00;25.02;99881.00;4921624;29;19918;-93
2022/07/20 08:59:37;;;;;;;;;;;;;;;29.01;24.13;99881.78;4923391;29;19915;-92
2022/07/20 09:02:05;;;;;;;;;;;;;;;28.90;23.69;99870.59;4924801;29;20424;-92
2022/07/20 09:04:39;;;;;;;;;;;;;;;28.95;24.64;99875.81;4922823;29;19919;-91
2022/07/20 09:07:04;;;;;;;;;;;;;;;29.08;25.14;99872.75;4942485;28;19924;-90
2022/07/20 09:09:30;;;;;;;;;;;;;;;29.19;24.39;99873.66;4959996;28;20004;-89
2022/07/20 09:11:55;;;;;;;;;;;;;;;29.17;23.51;99874.03;4958850;28;19918;-92
2022/07/20 09:14:47;;;;;;;;;;;;;;;29.32;24.43;99872.19;4943542;28;19914;-92
2022/07/20 09:17:34;;;;;;;;;;;;;;;29.33;23.87;99859.91;4960280;28;19914;-93
2022/07/20 09:20:00;;;;;;;;;;;;;;;29.38;23.40;99869.84;4961856;28;19937;-94
2022/07/20 09:22:34;;;;;;;;;;;;;;;29.34;22.08;99861.50;4958749;28;20316;-93
2022/07/20 09:25:15;;;;;;;;;;;;;;;29.40;22.31;99853.63;4951109;28;19918;-94
2022/07/20 09:27:40;;;;;;;;;;;;;;;29.36;23.03;99852.81;4953386;28;19927;-93
2022/07/20 09:30:06;;;;;;;;;;;;;;;29.40;22.79;99865.50;4939137;28;19915;-92
2022/07/20 09:32:39;;;;;;;;;;;;;;;29.40;23.26;99851.63;4952361;28;19914;-93
2022/07/20 09:35:05;;;;;;;;;;;;;;;29.40;23.43;99853.63;4947276;28;19921;-91
2022/07/20 09:38:09;;;;;;;;;;;;;;;29.46;23.26;99849.31;4944916;28;19914;-90
2022/07/20 09:40:52;;;;;;;;;;;;;;;29.51;22.76;99842.59;4905818;29;19903;-96
2022/07/20 09:43:43;;;;;;;;;;;;;;;29.54;22.52;99847.41;4937540;29;19998;-96
2022/07/20 09:46:23;;;;;;;;;;;;;;;29.44;22.97;99846.13;4922438;29;19907;-96
2022/07/20 09:48:49;;;;;;;;;;;;;;;29.53;23.07;99845.78;4938829;29;19947;-96
2022/07/20 09:51:21;;;;;;;;;;;;;;;29.54;22.67;99837.09;4932913;28;19914;-94
2022/07/20 09:53:47;;;;;;;;;;;;;;;29.56;22.37;99831.94;4958015;28;19914;-91
2022/07/20 09:56:14;;;;;;;;;;;;;;;29.58;22.72;99832.34;4942495;28;19918;-92
2022/07/20 09:58:47;;;;;;;;;;;;;;;29.68;22.06;99830.06;4952783;29;20369;-93
2022/07/20 10:01:17;;;;;;;;;;;;;;;29.84;22.59;99830.56;4926780;28;19922;-92
2022/07/20 10:03:45;;;;;;;;;;;;;;;29.90;21.96;99828.22;4940240;28;19914;-94
2022/07/20 10:06:31;;;;;;;;;;;;;;;29.94;22.28;99824.25;4970032;28;19961;-94
2022/07/20 10:09:17;;;;;;;;;;;;;;;;;;;;;
2022/07/20 10:11:48;;;;;;;;;;;;;;;30.06;21.71;99812.03;4907844;29;20014;-94
2022/07/20 10:14:19;;;;;;;;;;;;;;;30.13;21.48;99809.28;4910377;29;19938;-95
2022/07/20 10:17:01;;;;;;;;;;;;;;;30.14;21.98;99807.31;4904582;29;19918;-94
2022/07/20 10:19:53;;;;;;;;;;;;;;;29.70;21.41;99811.03;4924565;29;19940;-96
2022/07/20 10:22:19;;;;;;;;;;;;;;;29.96;21.16;99799.69;4923606;29;19923;-95
2022/07/20 10:24:44;;;;;;;;;;;;;;;30.10;21.30;99796.19;4910459;29;20425;-96
2022/07/20 10:27:26;;;;;;;;;;;;;;;30.04;20.91;99791.41;4916027;29;19939;-95
2022/07/20 10:29:57;;;;;;;;;;;;;;;30.09;21.48;99785.44;4911950;29;19919;-96
2022/07/20 10:32:36;;;;;;;;;;;;;;;;;;;;;
2022/07/20 10:35:02;;;;;;;;;;;;;;;30.13;21.06;99783.47;4926612;29;19977;-94
2022/07/20 10:37:37;;;;;;;;;;;;;;;30.09;21.23;99786.25;4915290;29;19926;-96
2022/07/20 10:40:09;;;;;;;;;;;;;;;30.09;21.29;99777.13;4943369;28;19914;-94
2022/07/20 10:48:44;;;;;;;;;;;;;;;30.03;21.20;99762.84;4953593;29;19959;-92
2022/07/20 10:51:13;;;;;;;;;;;;;;;30.04;21.66;99749.75;4927144;29;19914;-96
2022/07/20 10:53:38;;;;;;;;;;;;;;;30.17;21.41;99757.34;4910507;29;19958;-92
2022/07/20 10:56:16;;;;;;;;;;;;;;;30.20;22.35;99766.84;4930954;28;19925;-92
2022/07/20 10:58:44;;;;;;;;;;;;;;;30.20;21.62;99755.75;4945676;28;19914;-94
2022/07/20 11:01:13;;;;;;;;;;;;;;;30.34;21.75;99752.22;4945425;28;19961;-93
2022/07/20 11:03:42;;;;;;;;;;;;;;;30.37;21.95;99748.66;4943743;28;19914;-92
2022/07/20 11:06:14;;;;;;;;;;;;;;;30.44;21.68;99747.88;4944773;28;19914;-94
2022/07/20 11:08:44;;;;;;;;;;;;;;;30.28;21.47;99746.25;4944547;28;19965;-93
2022/07/20 11:11:16;;;;;;;;;;;;;;;30.39;21.89;99737.97;4944866;28;19914;-91
2022/07/20 11:13:41;;;;;;;;;;;;;;;30.46;21.67;99737.16;4970252;28;19914;-92
2022/07/20 11:16:07;;;;;;;;;;;;;;;30.56;21.01;99734.41;4944912;28;19921;-91
2022/07/20 11:18:33;;;;;;;;;;;;;;;30.66;21.72;99732.03;4974210;28;19914;-92
2022/07/20 11:21:02;;;;;;;;;;;;;;;30.71;22.53;99735.19;4996026;28;20477;-91
2022/07/20 11:23:38;;;;;;;;;;;;;;;30.66;22.36;99727.25;4968583;28;19918;-93
2022/07/20 11:26:03;;;;;;;;;;;;;;;30.74;22.23;99719.72;4944513;28;19937;-93
2022/07/20 11:28:38;;;;;;;;;;;;;;;30.87;21.58;99723.72;4948322;28;19922;-93
2022/07/20 11:31:05;;;;;;;;;;;;;;;30.98;21.63;99715.34;4951771;28;20407;-91
2022/07/20 11:33:34;;;;;;;;;;;;;;;30.92;20.73;99723.34;4956064;28;19914;-93
2022/07/20 11:36:01;;;;;;;;;;;;;;;31.05;21.25;99717.38;4951265;28;19920;-93
2022/07/20 11:38:47;;;;;;;;;;;;;;;30.98;20.88;99724.53;4965676;28;19941;-95
2022/07/20 11:41:16;;;;;;;;;;;;;;;30.98;21.50;99716.19;4988982;28;19918;-90
2022/07/20 11:43:42;;;;;;;;;;;;;;;31.12;20.58;99709.78;4963478;28;20004;-92
2022/07/20 11:46:11;;;;;;;;;;;;;;;31.14;20.81;99706.59;4963279;28;20012;-93
2022/07/20 11:48:36;;;;;;;;;;;;;;;31.23;20.97;99701.41;4953022;28;19918;-91
2022/07/20 11:51:02;;;;;;;;;;;;;;;31.26;20.96;99697.84;4965138;28;19914;-95
2022/07/20 11:53:31;;;;;;;;;;;;;;;31.25;21.21;99695.44;4945095;28;19914;-93
2022/07/20 11:55:57;;;;;;;;;;;;;;;31.35;21.01;99691.84;4964354;28;19914;-94
2022/07/20 11:58:23;;;;;;;;;;;;;;;31.36;20.93;99688.66;4966733;28;20009;-93
2022/07/20 12:00:54;;;;;;;;;;;;;;;31.31;20.82;99686.28;4963415;28;19921;-95
2022/07/20 12:03:21;;;;;;;;;;;;;;;31.12;20.90;99690.31;4973271;28;19936;-90
2022/07/20 12:05:46;;;;;;;;;;;;;;;31.11;20.48;99685.94;4965350;28;19918;-92
2022/07/20 12:08:15;;;;;;;;;;;;;;;31.15;21.05;99674.78;4980240;28;19929;-92
2022/07/20 12:10:44;;;;;;;;;;;;;;;31.28;21.74;99681.53;4961262;28;19914;-93
2022/07/20 12:13:10;;;;;;;;;;;;;;;31.33;21.11;99678.31;4958340;28;20407;-92
2022/07/20 12:15:36;;;;;;;;;;;;;;;31.39;21.35;99671.16;4958830;28;19914;-92
2022/07/20 12:18:01;;;;;;;;;;;;;;;31.40;20.47;99678.31;4961760;28;20312;-94
2022/07/20 12:20:29;;;;;;;;;;;;;;;31.47;21.34;99671.19;4962930;28;20396;-92
2022/07/20 12:22:55;;;;;;;;;;;;;;;31.62;20.54;99669.91;4975322;28;19918;-94
2022/07/20 12:25:20;;;;;;;;;;;;;;;31.73;20.38;99658.72;4978619;28;19988;-92
2022/07/20 12:27:46;;;;;;;;;;;;;;;31.77;20.13;99659.50;4974502;28;20373;-93
2022/07/20 12:30:26;;;;;;;;;;;;;;;31.82;20.33;99661.88;4963516;28;20024;-93
2022/07/20 12:33:02;;;;;;;;;;;;;;;31.94;19.94;99652.25;4978623;28;19973;-94
2022/07/20 12:35:50;;;;;;;;;;;;;;;31.96;19.75;99647.88;4978906;28;19914;-93
2022/07/20 12:38:15;;;;;;;;;;;;;;;31.99;20.15;99647.06;4979082;28;19968;-92
2022/07/20 12:40:47;;;;;;;;;;;;;;;32.13;19.68;99637.03;4980184;28;20371;-96
2022/07/20 12:46:23;;;;;;;;;;;;;;;32.38;19.21;99645.22;4941962;29;20440;-96
2022/07/20 12:48:52;;;;;;;;;;;;;;;32.21;19.35;99641.38;4929724;29;19994;-94
2022/07/20 12:51:17;;;;;;;;;;;;;;;32.27;20.00;99631.38;4950128;28;19918;-92
2022/07/20 12:53:43;;;;;;;;;;;;;;;32.28;19.40;99626.56;4977501;28;19913;-91
2022/07/20 12:56:09;;;;;;;;;;;;;;;32.48;19.70;99629.56;4996060;28;19921;-94
2022/07/20 12:58:34;;;;;;;;;;;;;;;32.57;19.46;99622.38;4978353;28;19920;-93
2022/07/20 13:01:00;;;;;;;;;;;;;;;32.65;18.70;99623.09;4993467;28;19996;-92
2022/07/20 13:03:25;;;;;;;;;;;;;;;32.66;19.67;99619.09;4995756;28;19950;-92
2022/07/20 13:05:50;;;;;;;;;;;;;;;32.71;18.92;99621.44;4979566;28;19914;-92
2022/07/20 13:08:16;;;;;;;;;;;;;;;32.84;18.59;99618.13;4994831;28;20016;-92
2022/07/20 13:10:47;;;;;;;;;;;;;;;32.96;18.26;99603.66;4992844;28;19914;-94
2022/07/20 13:13:13;;;;;;;;;;;;;;;32.99;18.78;99609.19;4977898;28;19973;-91
2022/07/20 13:15:40;;;;;;;;;;;;;;;33.15;18.62;99600.28;4979114;28;19968;-91